sensor_id;sensor_type;location;lat;lon;timestamp;temperature;humidity
22416;DHT22;12204;50.600;4.608;2023-05-18T00:04:22;22.50;66.20
22416;DHT22;12204;50.600;4.608;2023-05-18T00:09:26;22.50;66.30
22416;DHT22;12204;50.600;4.608;2023-05-18T00:14:29;22.50;66.30
22416;DHT22;12204;50.600;4.608;2023-05-18T00:19:35;22.50;66.00
22416;DHT22;12204;50.600;4.608;2023-05-18T00:24:38;22.50;66.20
22416;DHT22;12204;50.600;4.608;2023-05-18T00:29:41;22.50;66.20
22416;DHT22;12204;50.600;4.608;2023-05-18T00:34:47;22.50;66.00
22416;DHT22;12204;50.600;4.608;2023-05-18T00:39:50;22.50;65.90
22416;DHT22;12204;50.600;4.608;2023-05-18T00:44:54;22.50;65.70
22416;DHT22;12204;50.600;4.608;2023-05-18T00:49:58;22.50;65.70
22416;DHT22;12204;50.600;4.608;2023-05-18T00:55:02;22.50;65.70
22416;DHT22;12204;50.600;4.608;2023-05-18T01:00:07;22.50;65.60
22416;DHT22;12204;50.600;4.608;2023-05-18T01:05:15;22.50;65.70
22416;DHT22;12204;50.600;4.608;2023-05-18T01:10:20;22.50;65.90
22416;DHT22;12204;50.600;4.608;2023-05-18T01:15:25;22.50;66.10
22416;DHT22;12204;50.600;4.608;2023-05-18T01:20:35;22.50;66.10
22416;DHT22;12204;50.600;4.608;2023-05-18T01:25:44;22.50;66.10
22416;DHT22;12204;50.600;4.608;2023-05-18T01:30:51;22.50;65.90
22416;DHT22;12204;50.600;4.608;2023-05-18T01:35:55;22.50;65.90
22416;DHT22;12204;50.600;4.608;2023-05-18T01:41:02;22.50;65.90
22416;DHT22;12204;50.600;4.608;2023-05-18T01:46:19;22.50;65.80
22416;DHT22;12204;50.600;4.608;2023-05-18T01:51:32;22.50;65.80
22416;DHT22;12204;50.600;4.608;2023-05-18T01:56:38;22.50;65.80
22416;DHT22;12204;50.600;4.608;2023-05-18T02:01:43;22.50;65.70
22416;DHT22;12204;50.600;4.608;2023-05-18T02:06:49;22.50;65.70
22416;DHT22;12204;50.600;4.608;2023-05-18T02:11:55;22.50;65.70
22416;DHT22;12204;50.600;4.608;2023-05-18T02:17:00;22.50;65.90
22416;DHT22;12204;50.600;4.608;2023-05-18T02:22:04;22.50;65.90
22416;DHT22;12204;50.600;4.608;2023-05-18T02:27:07;22.50;66.10
22416;DHT22;12204;50.600;4.608;2023-05-18T02:32:12;22.50;66.00
22416;DHT22;12204;50.600;4.608;2023-05-18T02:37:15;22.50;65.90
22416;DHT22;12204;50.600;4.608;2023-05-18T02:42:18;22.50;65.90
22416;DHT22;12204;50.600;4.608;2023-05-18T02:47:23;22.50;66.30
22416;DHT22;12204;50.600;4.608;2023-05-18T02:52:27;22.40;66.00
22416;DHT22;12204;50.600;4.608;2023-05-18T02:57:30;22.40;66.30
22416;DHT22;12204;50.600;4.608;2023-05-18T03:02:41;22.40;66.30
22416;DHT22;12204;50.600;4.608;2023-05-18T03:07:45;22.40;66.40
22416;DHT22;12204;50.600;4.608;2023-05-18T03:12:53;22.40;66.40
22416;DHT22;12204;50.600;4.608;2023-05-18T03:17:58;22.40;66.40
22416;DHT22;12204;50.600;4.608;2023-05-18T03:23:03;22.40;66.30
22416;DHT22;12204;50.600;4.608;2023-05-18T03:28:08;22.40;66.20
22416;DHT22;12204;50.600;4.608;2023-05-18T03:33:13;22.40;66.40
22416;DHT22;12204;50.600;4.608;2023-05-18T03:38:16;22.30;66.40
22416;DHT22;12204;50.600;4.608;2023-05-18T03:43:29;22.40;66.60
22416;DHT22;12204;50.600;4.608;2023-05-18T03:48:36;22.40;66.50
22416;DHT22;12204;50.600;4.608;2023-05-18T03:53:39;22.30;66.50
22416;DHT22;12204;50.600;4.608;2023-05-18T03:58:43;22.40;66.50
22416;DHT22;12204;50.600;4.608;2023-05-18T04:03:48;22.40;66.50
22416;DHT22;12204;50.600;4.608;2023-05-18T04:08:52;22.40;66.80
22416;DHT22;12204;50.600;4.608;2023-05-18T04:13:59;22.30;67.00
22416;DHT22;12204;50.600;4.608;2023-05-18T04:19:04;22.40;66.80
22416;DHT22;12204;50.600;4.608;2023-05-18T04:24:09;22.40;66.70
22416;DHT22;12204;50.600;4.608;2023-05-18T04:29:15;22.40;66.70
22416;DHT22;12204;50.600;4.608;2023-05-18T04:34:20;22.30;66.40
22416;DHT22;12204;50.600;4.608;2023-05-18T04:39:25;22.30;66.50
22416;DHT22;12204;50.600;4.608;2023-05-18T04:44:29;22.30;66.60
22416;DHT22;12204;50.600;4.608;2023-05-18T04:49:36;22.30;66.50
22416;DHT22;12204;50.600;4.608;2023-05-18T04:54:39;22.30;66.50
22416;DHT22;12204;50.600;4.608;2023-05-18T04:59:43;22.30;66.40
22416;DHT22;12204;50.600;4.608;2023-05-18T05:04:49;22.30;66.50
22416;DHT22;12204;50.600;4.608;2023-05-18T05:09:52;22.30;66.40
22416;DHT22;12204;50.600;4.608;2023-05-18T05:14:56;22.30;66.40
22416;DHT22;12204;50.600;4.608;2023-05-18T05:20:00;22.30;66.40
22416;DHT22;12204;50.600;4.608;2023-05-18T05:25:04;22.30;66.60
22416;DHT22;12204;50.600;4.608;2023-05-18T05:30:08;22.30;66.80
22416;DHT22;12204;50.600;4.608;2023-05-18T05:35:16;22.20;66.80
22416;DHT22;12204;50.600;4.608;2023-05-18T05:40:20;22.30;66.90
22416;DHT22;12204;50.600;4.608;2023-05-18T05:45:25;22.30;67.10
22416;DHT22;12204;50.600;4.608;2023-05-18T05:50:35;22.20;66.80
22416;DHT22;12204;50.600;4.608;2023-05-18T05:55:39;22.20;67.10
22416;DHT22;12204;50.600;4.608;2023-05-18T06:00:48;22.30;66.70
22416;DHT22;12204;50.600;4.608;2023-05-18T06:05:53;22.20;66.80
22416;DHT22;12204;50.600;4.608;2023-05-18T06:10:57;22.30;66.80
22416;DHT22;12204;50.600;4.608;2023-05-18T06:16:00;22.30;67.10
22416;DHT22;12204;50.600;4.608;2023-05-18T06:21:05;22.20;66.80
22416;DHT22;12204;50.600;4.608;2023-05-18T06:26:09;22.30;66.90
22416;DHT22;12204;50.600;4.608;2023-05-18T06:31:36;22.20;66.70
22416;DHT22;12204;50.600;4.608;2023-05-18T06:36:47;22.20;66.70
22416;DHT22;12204;50.600;4.608;2023-05-18T06:41:50;22.20;67.10
22416;DHT22;12204;50.600;4.608;2023-05-18T06:46:57;22.20;67.00
22416;DHT22;12204;50.600;4.608;2023-05-18T06:52:04;22.20;66.90
22416;DHT22;12204;50.600;4.608;2023-05-18T07:02:43;23.20;72.10
22416;DHT22;12204;50.600;4.608;2023-05-18T07:07:46;22.50;65.70
22416;DHT22;12204;50.600;4.608;2023-05-18T07:12:50;22.10;66.90
22416;DHT22;12204;50.600;4.608;2023-05-18T07:17:55;21.90;67.30
22416;DHT22;12204;50.600;4.608;2023-05-18T07:22:58;22.40;72.60
22416;DHT22;12204;50.600;4.608;2023-05-18T07:28:02;23.30;74.80
22416;DHT22;12204;50.600;4.608;2023-05-18T07:33:07;23.50;75.40
22416;DHT22;12204;50.600;4.608;2023-05-18T07:38:10;23.40;63.10
22416;DHT22;12204;50.600;4.608;2023-05-18T07:43:14;22.90;63.70
22416;DHT22;12204;50.600;4.608;2023-05-18T07:48:19;22.70;63.40
22416;DHT22;12204;50.600;4.608;2023-05-18T07:53:22;22.60;63.10
22416;DHT22;12204;50.600;4.608;2023-05-18T07:58:26;22.50;62.90
22416;DHT22;12204;50.600;4.608;2023-05-18T08:03:30;22.50;62.20
22416;DHT22;12204;50.600;4.608;2023-05-18T08:08:34;22.50;62.10
22416;DHT22;12204;50.600;4.608;2023-05-18T08:13:38;22.50;61.50
22416;DHT22;12204;50.600;4.608;2023-05-18T08:18:43;22.50;62.00
22416;DHT22;12204;50.600;4.608;2023-05-18T08:23:46;22.40;61.70
22416;DHT22;12204;50.600;4.608;2023-05-18T08:28:50;22.50;61.40
22416;DHT22;12204;50.600;4.608;2023-05-18T08:33:55;22.50;61.00
22416;DHT22;12204;50.600;4.608;2023-05-18T08:38:59;22.50;61.20
22416;DHT22;12204;50.600;4.608;2023-05-18T08:44:08;22.50;60.60
22416;DHT22;12204;50.600;4.608;2023-05-18T08:49:18;22.50;60.50
22416;DHT22;12204;50.600;4.608;2023-05-18T08:54:23;22.50;60.70
22416;DHT22;12204;50.600;4.608;2023-05-18T08:59:29;22.50;60.90
22416;DHT22;12204;50.600;4.608;2023-05-18T09:04:35;22.50;61.30
22416;DHT22;12204;50.600;4.608;2023-05-18T09:09:40;22.50;60.30
22416;DHT22;12204;50.600;4.608;2023-05-18T09:14:45;22.50;59.80
22416;DHT22;12204;50.600;4.608;2023-05-18T09:19:50;22.50;59.50
22416;DHT22;12204;50.600;4.608;2023-05-18T09:30:13;22.50;58.90
22416;DHT22;12204;50.600;4.608;2023-05-18T09:35:17;22.50;58.20
22416;DHT22;12204;50.600;4.608;2023-05-18T09:40:27;22.60;59.00
22416;DHT22;12204;50.600;4.608;2023-05-18T09:45:32;22.60;58.30
22416;DHT22;12204;50.600;4.608;2023-05-18T09:50:36;22.60;58.50
22416;DHT22;12204;50.600;4.608;2023-05-18T09:55:45;22.70;58.30
22416;DHT22;12204;50.600;4.608;2023-05-18T10:00:51;22.70;58.20
22416;DHT22;12204;50.600;4.608;2023-05-18T10:06:01;22.70;58.10
22416;DHT22;12204;50.600;4.608;2023-05-18T10:11:08;22.70;57.90
22416;DHT22;12204;50.600;4.608;2023-05-18T10:16:14;22.70;57.80
22416;DHT22;12204;50.600;4.608;2023-05-18T10:21:18;22.70;57.70
22416;DHT22;12204;50.600;4.608;2023-05-18T10:26:24;22.70;57.70
22416;DHT22;12204;50.600;4.608;2023-05-18T10:31:32;22.70;57.70
22416;DHT22;12204;50.600;4.608;2023-05-18T10:36:37;22.70;58.10
22416;DHT22;12204;50.600;4.608;2023-05-18T10:41:43;22.70;57.30
22416;DHT22;12204;50.600;4.608;2023-05-18T10:46:49;22.60;57.60
22416;DHT22;12204;50.600;4.608;2023-05-18T10:51:53;22.60;57.50
22416;DHT22;12204;50.600;4.608;2023-05-18T10:56:57;22.60;57.60
22416;DHT22;12204;50.600;4.608;2023-05-18T11:02:02;22.60;57.50
22416;DHT22;12204;50.600;4.608;2023-05-18T11:07:09;22.60;57.50
22416;DHT22;12204;50.600;4.608;2023-05-18T11:12:15;22.60;57.40
22416;DHT22;12204;50.600;4.608;2023-05-18T11:17:22;22.50;57.00
22416;DHT22;12204;50.600;4.608;2023-05-18T11:22:39;22.60;56.80
22416;DHT22;12204;50.600;4.608;2023-05-18T11:27:53;22.50;56.90
22416;DHT22;12204;50.600;4.608;2023-05-18T11:33:08;22.50;56.70
22416;DHT22;12204;50.600;4.608;2023-05-18T11:38:13;22.50;56.60
22416;DHT22;12204;50.600;4.608;2023-05-18T11:43:19;22.50;56.50
22416;DHT22;12204;50.600;4.608;2023-05-18T11:48:27;22.50;56.80
22416;DHT22;12204;50.600;4.608;2023-05-18T11:53:31;22.50;56.60
22416;DHT22;12204;50.600;4.608;2023-05-18T11:58:36;22.50;56.60
22416;DHT22;12204;50.600;4.608;2023-05-18T12:03:42;22.50;56.70
22416;DHT22;12204;50.600;4.608;2023-05-18T12:08:49;22.50;56.70
22416;DHT22;12204;50.600;4.608;2023-05-18T12:13:55;22.50;56.50
22416;DHT22;12204;50.600;4.608;2023-05-18T12:19:01;22.50;56.60
22416;DHT22;12204;50.600;4.608;2023-05-18T12:24:06;22.50;56.50
22416;DHT22;12204;50.600;4.608;2023-05-18T12:29:11;22.50;56.10
22416;DHT22;12204;50.600;4.608;2023-05-18T12:34:21;22.50;56.20
22416;DHT22;12204;50.600;4.608;2023-05-18T12:39:31;22.50;55.90
22416;DHT22;12204;50.600;4.608;2023-05-18T12:44:36;22.50;55.90
22416;DHT22;12204;50.600;4.608;2023-05-18T12:49:42;22.50;55.70
22416;DHT22;12204;50.600;4.608;2023-05-18T12:54:52;22.50;56.00
22416;DHT22;12204;50.600;4.608;2023-05-18T13:00:00;22.50;56.40
22416;DHT22;12204;50.600;4.608;2023-05-18T13:05:12;22.50;56.80
22416;DHT22;12204;50.600;4.608;2023-05-18T13:10:17;22.50;56.20
22416;DHT22;12204;50.600;4.608;2023-05-18T13:15:22;22.50;56.20
22416;DHT22;12204;50.600;4.608;2023-05-18T13:20:31;22.50;56.30
22416;DHT22;12204;50.600;4.608;2023-05-18T13:25:38;22.50;56.10
22416;DHT22;12204;50.600;4.608;2023-05-18T13:30:44;22.50;56.00
22416;DHT22;12204;50.600;4.608;2023-05-18T13:35:50;22.50;56.00
22416;DHT22;12204;50.600;4.608;2023-05-18T13:40:54;22.50;55.70
22416;DHT22;12204;50.600;4.608;2023-05-18T13:45:58;22.50;55.70
22416;DHT22;12204;50.600;4.608;2023-05-18T13:51:05;22.50;55.20
22416;DHT22;12204;50.600;4.608;2023-05-18T13:56:09;22.50;55.10
22416;DHT22;12204;50.600;4.608;2023-05-18T14:01:12;22.60;55.00
22416;DHT22;12204;50.600;4.608;2023-05-18T14:06:20;22.60;55.70
22416;DHT22;12204;50.600;4.608;2023-05-18T14:11:24;22.60;55.70
22416;DHT22;12204;50.600;4.608;2023-05-18T14:16:27;22.70;55.40
22416;DHT22;12204;50.600;4.608;2023-05-18T14:21:32;22.70;55.40
22416;DHT22;12204;50.600;4.608;2023-05-18T14:26:36;22.70;55.50
22416;DHT22;12204;50.600;4.608;2023-05-18T14:31:40;22.80;55.50
22416;DHT22;12204;50.600;4.608;2023-05-18T14:36:44;22.80;55.80
22416;DHT22;12204;50.600;4.608;2023-05-18T14:41:48;22.80;55.70
22416;DHT22;12204;50.600;4.608;2023-05-18T14:46:51;22.80;55.60
22416;DHT22;12204;50.600;4.608;2023-05-18T14:51:56;22.90;56.00
22416;DHT22;12204;50.600;4.608;2023-05-18T14:57:00;22.90;56.00
22416;DHT22;12204;50.600;4.608;2023-05-18T15:02:04;22.90;56.20
22416;DHT22;12204;50.600;4.608;2023-05-18T15:07:10;23.00;55.90
22416;DHT22;12204;50.600;4.608;2023-05-18T15:12:13;23.00;56.10
22416;DHT22;12204;50.600;4.608;2023-05-18T15:17:18;23.00;56.10
22416;DHT22;12204;50.600;4.608;2023-05-18T15:22:23;23.10;56.20
22416;DHT22;12204;50.600;4.608;2023-05-18T15:27:27;23.10;56.00
22416;DHT22;12204;50.600;4.608;2023-05-18T15:32:30;23.20;56.00
22416;DHT22;12204;50.600;4.608;2023-05-18T15:37:35;23.20;55.90
22416;DHT22;12204;50.600;4.608;2023-05-18T15:42:39;23.30;55.80
22416;DHT22;12204;50.600;4.608;2023-05-18T15:47:42;23.20;55.70
22416;DHT22;12204;50.600;4.608;2023-05-18T15:52:47;23.30;55.60
22416;DHT22;12204;50.600;4.608;2023-05-18T15:57:51;23.40;55.30
22416;DHT22;12204;50.600;4.608;2023-05-18T16:02:54;23.40;55.00
22416;DHT22;12204;50.600;4.608;2023-05-18T16:07:59;23.50;55.30
22416;DHT22;12204;50.600;4.608;2023-05-18T16:13:02;23.50;55.30
22416;DHT22;12204;50.600;4.608;2023-05-18T16:18:07;23.50;55.40
22416;DHT22;12204;50.600;4.608;2023-05-18T16:23:12;23.50;55.70
22416;DHT22;12204;50.600;4.608;2023-05-18T16:28:15;23.60;55.80
22416;DHT22;12204;50.600;4.608;2023-05-18T16:33:19;23.60;55.70
22416;DHT22;12204;50.600;4.608;2023-05-18T16:38:24;23.60;55.50
22416;DHT22;12204;50.600;4.608;2023-05-18T16:43:27;23.60;55.60
22416;DHT22;12204;50.600;4.608;2023-05-18T16:48:31;23.70;56.00
22416;DHT22;12204;50.600;4.608;2023-05-18T16:53:36;23.60;56.00
22416;DHT22;12204;50.600;4.608;2023-05-18T16:58:39;23.60;56.20
22416;DHT22;12204;50.600;4.608;2023-05-18T17:03:42;23.70;55.10
22416;DHT22;12204;50.600;4.608;2023-05-18T17:08:47;23.60;55.20
22416;DHT22;12204;50.600;4.608;2023-05-18T17:13:58;23.70;56.00
22416;DHT22;12204;50.600;4.608;2023-05-18T17:19:02;23.70;56.60
22416;DHT22;12204;50.600;4.608;2023-05-18T17:24:07;23.70;57.00
22416;DHT22;12204;50.600;4.608;2023-05-18T17:29:10;23.70;57.90
22416;DHT22;12204;50.600;4.608;2023-05-18T17:34:18;23.70;57.70
22416;DHT22;12204;50.600;4.608;2023-05-18T17:39:23;23.70;57.50
22416;DHT22;12204;50.600;4.608;2023-05-18T17:44:26;23.70;57.50
22416;DHT22;12204;50.600;4.608;2023-05-18T17:49:30;23.60;57.10
22416;DHT22;12204;50.600;4.608;2023-05-18T17:54:35;23.60;56.20
22416;DHT22;12204;50.600;4.608;2023-05-18T17:59:39;23.60;57.50
22416;DHT22;12204;50.600;4.608;2023-05-18T18:04:42;23.60;56.20
22416;DHT22;12204;50.600;4.608;2023-05-18T18:09:47;23.60;57.20
22416;DHT22;12204;50.600;4.608;2023-05-18T18:14:51;23.50;56.00
22416;DHT22;12204;50.600;4.608;2023-05-18T18:19:54;23.50;55.50
22416;DHT22;12204;50.600;4.608;2023-05-18T18:25:00;23.50;55.30
22416;DHT22;12204;50.600;4.608;2023-05-18T18:30:05;23.50;55.20
22416;DHT22;12204;50.600;4.608;2023-05-18T18:35:09;23.50;54.90
22416;DHT22;12204;50.600;4.608;2023-05-18T18:40:14;23.40;55.00
22416;DHT22;12204;50.600;4.608;2023-05-18T18:45:18;23.40;55.10
22416;DHT22;12204;50.600;4.608;2023-05-18T18:50:22;23.40;55.20
22416;DHT22;12204;50.600;4.608;2023-05-18T18:55:26;23.30;54.60
22416;DHT22;12204;50.600;4.608;2023-05-18T19:00:30;23.30;54.50
22416;DHT22;12204;50.600;4.608;2023-05-18T19:05:34;23.20;54.30
22416;DHT22;12204;50.600;4.608;2023-05-18T19:10:39;23.20;54.50
22416;DHT22;12204;50.600;4.608;2023-05-18T19:15:45;23.20;54.80
22416;DHT22;12204;50.600;4.608;2023-05-18T19:20:48;23.20;54.80
22416;DHT22;12204;50.600;4.608;2023-05-18T19:25:53;23.20;54.40
22416;DHT22;12204;50.600;4.608;2023-05-18T19:30:57;23.20;54.90
22416;DHT22;12204;50.600;4.608;2023-05-18T19:36:01;23.20;54.90
22416;DHT22;12204;50.600;4.608;2023-05-18T19:41:06;23.20;55.00
22416;DHT22;12204;50.600;4.608;2023-05-18T19:46:10;23.20;55.20
22416;DHT22;12204;50.600;4.608;2023-05-18T19:51:13;23.20;55.30
22416;DHT22;12204;50.600;4.608;2023-05-18T19:56:19;23.10;55.30
22416;DHT22;12204;50.600;4.608;2023-05-18T20:01:23;23.10;55.40
22416;DHT22;12204;50.600;4.608;2023-05-18T20:06:27;23.10;55.50
22416;DHT22;12204;50.600;4.608;2023-05-18T20:12:02;23.10;55.50
22416;DHT22;12204;50.600;4.608;2023-05-18T20:17:53;23.10;56.20
22416;DHT22;12204;50.600;4.608;2023-05-18T20:22:57;23.10;57.00
22416;DHT22;12204;50.600;4.608;2023-05-18T20:28:02;23.10;57.30
22416;DHT22;12204;50.600;4.608;2023-05-18T20:33:08;23.00;57.50
22416;DHT22;12204;50.600;4.608;2023-05-18T20:45:39;23.10;58.40
22416;DHT22;12204;50.600;4.608;2023-05-18T20:50:43;23.10;58.70
22416;DHT22;12204;50.600;4.608;2023-05-18T20:55:46;23.00;58.90
22416;DHT22;12204;50.600;4.608;2023-05-18T21:00:52;23.00;58.90
22416;DHT22;12204;50.600;4.608;2023-05-18T21:05:56;23.00;59.20
22416;DHT22;12204;50.600;4.608;2023-05-18T21:10:59;23.10;59.40
22416;DHT22;12204;50.600;4.608;2023-05-18T21:16:05;23.00;59.40
22416;DHT22;12204;50.600;4.608;2023-05-18T21:21:10;23.00;59.60
22416;DHT22;12204;50.600;4.608;2023-05-18T21:26:14;23.00;59.80
22416;DHT22;12204;50.600;4.608;2023-05-18T21:31:19;23.00;60.00
22416;DHT22;12204;50.600;4.608;2023-05-18T21:36:35;23.00;60.00
22416;DHT22;12204;50.600;4.608;2023-05-18T21:41:38;23.00;60.00
22416;DHT22;12204;50.600;4.608;2023-05-18T21:46:47;23.00;60.30
22416;DHT22;12204;50.600;4.608;2023-05-18T21:51:55;23.00;60.50
22416;DHT22;12204;50.600;4.608;2023-05-18T21:56:59;23.00;60.60
22416;DHT22;12204;50.600;4.608;2023-05-18T22:02:04;23.00;60.80
22416;DHT22;12204;50.600;4.608;2023-05-18T22:07:08;23.00;61.00
22416;DHT22;12204;50.600;4.608;2023-05-18T22:12:11;23.00;61.20
22416;DHT22;12204;50.600;4.608;2023-05-18T22:17:16;23.00;61.60
22416;DHT22;12204;50.600;4.608;2023-05-18T22:22:20;23.00;61.40
22416;DHT22;12204;50.600;4.608;2023-05-18T22:27:31;23.00;61.30
22416;DHT22;12204;50.600;4.608;2023-05-18T22:32:38;23.10;61.40
22416;DHT22;12204;50.600;4.608;2023-05-18T22:37:42;23.00;61.60
22416;DHT22;12204;50.600;4.608;2023-05-18T22:42:45;23.00;62.00
22416;DHT22;12204;50.600;4.608;2023-05-18T22:47:50;23.00;62.00
22416;DHT22;12204;50.600;4.608;2023-05-18T22:52:54;23.00;62.70
22416;DHT22;12204;50.600;4.608;2023-05-18T22:57:58;23.00;62.80
22416;DHT22;12204;50.600;4.608;2023-05-18T23:03:02;23.00;63.10
22416;DHT22;12204;50.600;4.608;2023-05-18T23:08:06;23.00;63.20
22416;DHT22;12204;50.600;4.608;2023-05-18T23:13:10;23.00;63.20
22416;DHT22;12204;50.600;4.608;2023-05-18T23:18:18;23.00;63.60
22416;DHT22;12204;50.600;4.608;2023-05-18T23:23:21;22.90;63.40
22416;DHT22;12204;50.600;4.608;2023-05-18T23:28:26;23.00;63.80
22416;DHT22;12204;50.600;4.608;2023-05-18T23:33:32;23.00;63.70
22416;DHT22;12204;50.600;4.608;2023-05-18T23:38:37;22.90;64.00
22416;DHT22;12204;50.600;4.608;2023-05-18T23:43:42;23.00;63.90
22416;DHT22;12204;50.600;4.608;2023-05-18T23:48:48;22.90;63.60
22416;DHT22;12204;50.600;4.608;2023-05-18T23:53:53;22.90;63.90
22416;DHT22;12204;50.600;4.608;2023-05-18T23:58:57;22.90;63.70
